Time;durP1;ratioP1;P1;durP2;ratioP2;P2;SDS_P1;SDS_P2;PMS_P1;PMS_P2;Temp;Humidity;BMP_temperature;BMP_pressure;BME280_temperature;BME280_humidity;BME280_pressure;Samples;Min_cycle;Max_cycle;Signal;HPM_P1;HPM_P2
2022/05/29 00:01:19;;;;;;;13.27;4.55;;;9.50;99.90;;;;;;5075965;28;20105;-64
2022/05/29 00:03:45;;;;;;;11.30;4.97;;;9.50;99.90;;;;;;5084873;28;20040;-63
2022/05/29 00:06:12;;;;;;;13.73;4.63;;;9.50;99.90;;;;;;5090378;28;20039;-63
2022/05/29 00:08:40;;;;;;;13.15;5.03;;;9.50;99.90;;;;;;5091519;28;20039;-63
2022/05/29 00:11:09;;;;;;;11.07;4.47;;;9.50;99.90;;;;;;5071478;28;20044;-63
2022/05/29 00:13:34;;;;;;;14.77;4.95;;;9.50;99.90;;;;;;5084382;28;20048;-63
2022/05/29 00:16:00;;;;;;;11.48;5.30;;;9.50;99.90;;;;;;5094306;28;20128;-63
2022/05/29 00:18:25;;;;;;;16.00;4.57;;;9.50;99.90;;;;;;5070287;28;20039;-63
2022/05/29 00:20:54;;;;;;;11.30;4.35;;;9.50;99.90;;;;;;5081536;28;20567;-63
2022/05/29 00:23:20;;;;;;;12.00;4.38;;;9.50;99.90;;;;;;5091479;28;20100;-63
2022/05/29 00:25:50;;;;;;;13.60;5.15;;;9.60;99.90;;;;;;5087605;28;20036;-63
2022/05/29 00:28:16;;;;;;;9.90;4.50;;;9.60;99.90;;;;;;5082653;28;20404;-64
2022/05/29 00:30:41;;;;;;;14.88;5.13;;;9.60;99.90;;;;;;5063153;28;20484;-63
2022/05/29 00:33:08;;;;;;;11.13;4.97;;;9.60;99.90;;;;;;5055219;28;20036;-64
2022/05/29 00:35:34;;;;;;;11.50;4.53;;;9.60;99.90;;;;;;5085706;28;20040;-63
2022/05/29 00:38:00;;;;;;;15.35;5.35;;;9.70;99.90;;;;;;5084921;28;20609;-63
2022/05/29 00:40:57;;;;;;;12.57;5.00;;;9.70;99.90;;;;;;5093621;28;20122;-64
2022/05/29 00:43:23;;;;;;;11.95;5.18;;;9.70;99.90;;;;;;5075497;28;20054;-63
2022/05/29 00:45:55;;;;;;;13.52;5.07;;;9.70;99.90;;;;;;5081830;28;20119;-63
2022/05/29 00:48:21;;;;;;;11.32;4.40;;;9.70;99.90;;;;;;5090816;28;20036;-63
2022/05/29 00:50:51;;;;;;;9.52;4.22;;;9.70;99.90;;;;;;5087753;28;20047;-63
2022/05/29 00:53:17;;;;;;;15.55;4.68;;;9.70;99.90;;;;;;5084215;28;20088;-64
2022/05/29 00:55:52;;;;;;;15.52;5.30;;;9.70;99.90;;;;;;5085624;28;20044;-64
2022/05/29 00:58:21;;;;;;;11.52;4.68;;;9.70;99.90;;;;;;5085392;28;20074;-63
2022/05/29 01:00:48;;;;;;;13.10;5.30;;;9.60;99.90;;;;;;5064469;28;20055;-63
2022/05/29 01:03:13;;;;;;;12.00;5.07;;;9.60;99.90;;;;;;5084785;28;20089;-63
2022/05/29 01:05:39;;;;;;;8.60;5.13;;;9.60;99.90;;;;;;5086790;28;20119;-64
2022/05/29 01:08:13;;;;;;;16.33;5.45;;;9.60;99.90;;;;;;5070269;28;20078;-64
2022/05/29 01:10:58;;;;;;;11.82;4.72;;;9.60;99.90;;;;;;5080938;28;20069;-64
2022/05/29 01:13:29;;;;;;;13.35;5.15;;;9.60;99.90;;;;;;5090714;28;20086;-63
2022/05/29 01:16:22;;;;;;;17.55;5.30;;;9.50;99.90;;;;;;5089045;28;20087;-64
2022/05/29 01:18:59;;;;;;;11.85;4.57;;;9.60;99.90;;;;;;5062442;28;20411;-64
2022/05/29 01:21:46;;;;;;;14.85;4.93;;;9.50;99.90;;;;;;5072936;28;20373;-63
2022/05/29 01:24:35;;;;;;;14.95;5.13;;;9.50;99.90;;;;;;5072417;28;20040;-63
2022/05/29 01:27:20;;;;;;;14.80;5.22;;;9.40;99.90;;;;;;5080694;28;20051;-64
2022/05/29 01:30:08;;;;;;;16.20;5.57;;;9.40;99.90;;;;;;5072650;28;20048;-63
2022/05/29 01:33:10;;;;;;;10.07;4.80;;;9.30;99.90;;;;;;5071856;28;20036;-63
2022/05/29 01:35:37;;;;;;;;;;;9.30;99.90;;;;;;5084161;28;20169;-63
2022/05/29 01:38:31;;;;;;;14.40;5.30;;;9.20;99.90;;;;;;5092586;28;19916;-63
2022/05/29 01:41:22;;;;;;;13.38;5.20;;;9.20;99.90;;;;;;5062330;28;20091;-64
2022/05/29 01:43:55;;;;;;;;;;;9.10;99.90;;;;;;5080749;28;20040;-63
2022/05/29 01:46:30;;;;;;;14.07;4.80;;;9.00;99.90;;;;;;5090209;28;19966;-63
2022/05/29 01:49:04;;;;;;;16.08;4.90;;;8.90;99.90;;;;;;5089527;28;20067;-63
2022/05/29 01:51:48;;;;;;;12.57;4.72;;;9.00;99.90;;;;;;5078670;28;20045;-63
2022/05/29 01:54:22;;;;;;;12.27;5.05;;;9.00;99.90;;;;;;5083708;28;20079;-63
2022/05/29 01:56:53;;;;;;;16.00;5.18;;;9.00;99.90;;;;;;5085045;28;20036;-63
2022/05/29 01:59:26;;;;;;;17.38;5.43;;;9.10;99.90;;;;;;5072188;28;20393;-64
2022/05/29 02:01:58;;;;;;;13.45;5.43;;;9.10;99.90;;;;;;5083527;28;20043;-63
2022/05/29 02:04:25;;;;;;;;;;;9.10;99.90;;;;;;5089416;28;20036;-64
2022/05/29 02:09:42;;;;;;;14.02;4.97;;;9.10;99.90;;;;;;5083409;28;20044;-64
2022/05/29 02:12:14;;;;;;;17.50;5.28;;;9.10;99.90;;;;;;5091888;28;20040;-63
2022/05/29 02:14:48;;;;;;;12.75;4.82;;;9.10;99.90;;;;;;5081221;28;20794;-63
2022/05/29 02:17:19;;;;;;;11.75;5.47;;;9.10;99.90;;;;;;5083275;28;20051;-64
2022/05/29 02:20:10;;;;;;;16.85;5.25;;;9.10;99.90;;;;;;5053792;28;20045;-64
2022/05/29 02:22:36;;;;;;;14.38;5.13;;;9.20;99.90;;;;;;5071805;28;20040;-63
2022/05/29 02:25:10;;;;;;;19.55;6.25;;;9.20;99.90;;;;;;5064918;28;20085;-64
2022/05/29 02:27:35;;;;;;;12.73;4.95;;;9.10;99.90;;;;;;5083409;28;20047;-63
2022/05/29 02:30:03;;;;;;;16.23;5.90;;;9.20;99.90;;;;;;5078324;28;20036;-64
2022/05/29 02:32:54;;;;;;;13.30;5.18;;;9.20;99.90;;;;;;5079166;28;20449;-63
2022/05/29 02:35:33;;;;;;;16.83;5.25;;;9.20;99.90;;;;;;5082729;28;20105;-63
2022/05/29 02:38:19;;;;;;;13.93;5.15;;;9.20;99.90;;;;;;5088785;28;20186;-64
2022/05/29 02:41:13;;;;;;;16.63;5.03;;;9.30;99.90;;;;;;5083132;28;20123;-63
2022/05/29 02:44:02;;;;;;;12.07;4.50;;;9.30;99.90;;;;;;5081979;28;20044;-63
2022/05/29 02:46:42;;;;;;;14.07;4.57;;;9.30;99.90;;;;;;5083906;28;20044;-64
2022/05/29 02:49:27;;;;;;;11.77;5.18;;;9.30;99.90;;;;;;5085964;28;20036;-63
2022/05/29 02:52:09;;;;;;;18.27;4.88;;;9.20;99.90;;;;;;5079021;28;20032;-63
2022/05/29 02:54:35;;;;;;;16.45;4.97;;;9.20;99.90;;;;;;5071726;28;20083;-63
2022/05/29 02:57:01;;;;;;;14.60;5.00;;;9.20;99.90;;;;;;5076688;28;20064;-63
2022/05/29 02:59:32;;;;;;;16.13;5.07;;;9.20;99.90;;;;;;5087572;28;20123;-63
2022/05/29 03:02:21;;;;;;;10.50;5.40;;;9.20;99.90;;;;;;5072424;28;20045;-63
2022/05/29 03:05:00;;;;;;;22.52;5.28;;;9.20;99.90;;;;;;5074448;28;20078;-63
2022/05/29 03:07:41;;;;;;;15.02;5.13;;;9.30;99.90;;;;;;5081077;28;20041;-63
2022/05/29 03:10:18;;;;;;;14.43;4.80;;;9.30;99.90;;;;;;5091147;28;20093;-63
2022/05/29 03:13:06;;;;;;;12.38;4.82;;;9.30;99.90;;;;;;5084725;28;20071;-63
2022/05/29 03:15:46;;;;;;;15.65;4.82;;;9.30;99.90;;;;;;5083176;28;20036;-63
2022/05/29 03:18:40;;;;;;;14.05;4.80;;;9.30;99.90;;;;;;5087608;28;20068;-63
2022/05/29 03:21:27;;;;;;;10.38;4.80;;;9.30;99.90;;;;;;5077935;28;20040;-64
2022/05/29 03:24:21;;;;;;;16.30;4.53;;;9.20;99.90;;;;;;5079220;28;20539;-63
2022/05/29 03:26:52;;;;;;;15.40;5.15;;;9.20;99.90;;;;;;5052999;28;20101;-63
2022/05/29 03:29:41;;;;;;;;;;;9.20;99.90;;;;;;5073989;28;20089;-64
2022/05/29 03:32:07;;;;;;;12.23;4.60;;;9.10;99.90;;;;;;5074802;28;19995;-63
2022/05/29 03:34:33;;;;;;;16.33;4.90;;;9.10;99.90;;;;;;5082695;28;20036;-63
2022/05/29 03:36:59;;;;;;;16.80;5.85;;;9.10;99.90;;;;;;5082360;28;20043;-63
2022/05/29 03:39:24;;;;;;;13.68;4.75;;;9.10;99.90;;;;;;5072075;28;20039;-63
2022/05/29 03:41:52;;;;;;;14.57;5.32;;;9.00;99.90;;;;;;5077352;28;20036;-64
2022/05/29 03:44:21;;;;;;;19.38;5.30;;;9.00;99.90;;;;;;5081076;28;20045;-63
2022/05/29 03:46:47;;;;;;;16.25;5.05;;;9.00;99.90;;;;;;5088255;28;20040;-63
2022/05/29 03:49:15;;;;;;;12.10;4.68;;;9.00;99.90;;;;;;5080196;28;20045;-63
2022/05/29 03:51:41;;;;;;;14.80;4.70;;;9.00;99.90;;;;;;5078083;28;20488;-64
2022/05/29 03:54:07;;;;;;;15.95;4.75;;;9.10;99.90;;;;;;5069684;28;20418;-63
2022/05/29 03:56:32;;;;;;;16.40;5.07;;;9.20;99.90;;;;;;5088113;28;20047;-64
2022/05/29 03:58:58;;;;;;;12.82;4.47;;;9.20;99.90;;;;;;5088681;28;20099;-64
2022/05/29 04:01:24;;;;;;;17.65;4.55;;;9.30;99.90;;;;;;5093593;28;20491;-64
2022/05/29 04:03:53;;;;;;;15.07;5.05;;;9.40;99.90;;;;;;5079095;28;20062;-63
2022/05/29 04:06:19;;;;;;;13.77;4.95;;;9.50;99.90;;;;;;5082990;28;20040;-64
2022/05/29 04:14:14;;;;;;;14.00;4.60;;;9.50;99.90;;;;;;5082045;28;20075;-63
2022/05/29 04:16:39;;;;;;;12.40;4.40;;;9.60;99.90;;;;;;5073243;28;20408;-63
2022/05/29 04:19:05;;;;;;;11.98;4.50;;;9.60;99.90;;;;;;5070953;28;20032;-63
2022/05/29 04:21:31;;;;;;;13.82;4.65;;;9.60;99.90;;;;;;5079425;28;20064;-63
2022/05/29 04:23:56;;;;;;;9.40;4.38;;;9.60;99.90;;;;;;5084425;28;20036;-64
2022/05/29 04:26:22;;;;;;;15.90;4.65;;;9.60;99.90;;;;;;5086682;28;20043;-63
2022/05/29 04:28:48;;;;;;;14.73;4.90;;;9.60;99.90;;;;;;5080332;28;20044;-63
2022/05/29 04:31:13;;;;;;;12.52;5.00;;;9.60;99.90;;;;;;5081352;28;20068;-63
2022/05/29 04:33:39;;;;;;;11.73;5.18;;;9.70;99.90;;;;;;5093828;28;20123;-63
2022/05/29 04:36:05;;;;;;;14.27;5.28;;;9.70;99.90;;;;;;5072994;28;20063;-64
2022/05/29 04:38:31;;;;;;;16.30;4.72;;;9.70;99.90;;;;;;5081003;28;20043;-64
2022/05/29 04:40:57;;;;;;;13.30;5.50;;;9.70;99.90;;;;;;5092983;28;20047;-64
2022/05/29 04:43:23;;;;;;;16.58;5.00;;;9.80;99.90;;;;;;5078316;28;20675;-64
2022/05/29 04:45:55;;;;;;;16.13;5.40;;;9.80;99.90;;;;;;5068150;28;20132;-63
2022/05/29 04:48:21;;;;;;;15.82;5.28;;;9.80;99.90;;;;;;5075682;28;20040;-63
2022/05/29 04:50:47;;;;;;;14.48;5.20;;;9.80;99.90;;;;;;5072481;28;20515;-64
2022/05/29 04:53:13;;;;;;;15.10;5.80;;;9.80;99.90;;;;;;5074161;28;20078;-63
2022/05/29 04:55:40;;;;;;;12.68;5.40;;;9.90;99.90;;;;;;5080439;28;20032;-63
2022/05/29 04:58:07;;;;;;;19.00;5.53;;;9.90;99.90;;;;;;5088661;28;20036;-63
2022/05/29 05:00:33;;;;;;;19.08;5.38;;;9.90;99.90;;;;;;5085114;28;20032;-64
2022/05/29 05:02:59;;;;;;;14.40;5.95;;;10.00;99.90;;;;;;5070795;28;20051;-63
2022/05/29 05:05:25;;;;;;;18.10;5.40;;;10.00;99.90;;;;;;5062165;28;20483;-63
2022/05/29 05:07:51;;;;;;;13.30;4.90;;;10.00;99.90;;;;;;5084420;28;20043;-64
2022/05/29 05:10:17;;;;;;;11.45;5.03;;;10.00;99.90;;;;;;5072843;28;20416;-63
2022/05/29 05:12:43;;;;;;;12.45;4.30;;;10.10;99.90;;;;;;5089040;28;20086;-64
2022/05/29 05:15:11;;;;;;;11.75;4.18;;;10.10;99.90;;;;;;5055021;28;20542;-63
2022/05/29 05:17:37;;;;;;;12.82;4.55;;;10.10;99.90;;;;;;5077878;28;20077;-63
2022/05/29 05:20:04;;;;;;;11.55;4.20;;;10.20;99.90;;;;;;5065493;28;20039;-64
2022/05/29 05:22:29;;;;;;;13.90;4.47;;;10.20;99.90;;;;;;5073864;28;20606;-63
2022/05/29 05:24:55;;;;;;;12.23;4.50;;;10.20;99.90;;;;;;5072875;28;20115;-63
2022/05/29 05:27:20;;;;;;;15.38;4.32;;;10.20;99.90;;;;;;5077572;28;20043;-63
2022/05/29 05:29:46;;;;;;;16.10;4.50;;;10.20;99.90;;;;;;5087760;28;20123;-64
2022/05/29 05:32:13;;;;;;;15.63;4.28;;;10.20;99.90;;;;;;5081831;28;20124;-64
2022/05/29 05:34:40;;;;;;;10.57;4.20;;;10.20;99.90;;;;;;5124985;22;20100;-61
2022/05/29 05:37:06;;;;;;;13.90;4.10;;;10.30;99.90;;;;;;5090317;28;20040;-61
2022/05/29 05:42:07;;;;;;;12.70;3.75;;;10.30;99.90;;;;;;5228731;22;20060;-61
2022/05/29 05:44:32;;;;;;;11.35;3.33;;;10.30;99.90;;;;;;5072683;28;20041;-61
2022/05/29 05:46:58;;;;;;;13.95;3.58;;;10.30;99.90;;;;;;5079931;28;20040;-61
2022/05/29 05:49:24;;;;;;;12.15;3.75;;;10.30;99.90;;;;;;5069490;28;20047;-62
2022/05/29 05:51:50;;;;;;;7.20;2.95;;;10.30;99.90;;;;;;5061063;28;20028;-62
2022/05/29 05:54:17;;;;;;;18.27;3.88;;;10.30;99.90;;;;;;5051757;28;20549;-61
2022/05/29 05:56:45;;;;;;;11.40;3.35;;;10.30;99.90;;;;;;5081083;28;20028;-61
2022/05/29 06:04:21;;;;;;;12.25;3.33;;;10.30;99.90;;;;;;6135886;22;21131;-61
2022/05/29 06:06:47;;;;;;;10.55;3.15;;;10.40;99.90;;;;;;5101426;28;20123;-61
2022/05/29 06:09:13;;;;;;;10.65;3.25;;;10.40;99.90;;;;;;5101826;28;20221;-61
2022/05/29 06:11:39;;;;;;;10.85;3.30;;;10.50;99.90;;;;;;5087067;28;20115;-61
2022/05/29 06:14:06;;;;;;;9.48;2.70;;;10.60;99.90;;;;;;5086377;28;20040;-61
2022/05/29 06:16:31;;;;;;;6.70;2.60;;;10.70;99.90;;;;;;5088103;28;20473;-61
2022/05/29 06:18:57;;;;;;;13.95;3.65;;;10.80;99.90;;;;;;5084076;28;20039;-64
2022/05/29 06:21:22;;;;;;;13.13;3.45;;;11.00;99.90;;;;;;5087215;28;20567;-62
2022/05/29 06:23:48;;;;;;;9.05;3.50;;;11.10;99.90;;;;;;5084122;28;20055;-61
2022/05/29 06:26:14;;;;;;;13.82;3.50;;;11.30;99.90;;;;;;5087917;28;20054;-62
2022/05/29 06:28:40;;;;;;;16.73;4.63;;;11.30;99.90;;;;;;5069806;28;20036;-62
2022/05/29 06:31:08;;;;;;;11.25;3.20;;;11.30;99.90;;;;;;5086948;28;20044;-61
2022/05/29 06:33:34;;;;;;;12.50;3.22;;;11.30;99.90;;;;;;5069369;28;20036;-61
2022/05/29 06:36:29;;;;;;;8.60;3.63;;;11.40;99.90;;;;;;5067076;28;20043;-61
2022/05/29 06:38:57;;;;;;;10.73;3.30;;;11.40;99.90;;;;;;5078776;28;20070;-63
2022/05/29 06:41:25;;;;;;;13.23;4.25;;;11.40;99.90;;;;;;5093420;28;20043;-61
2022/05/29 06:43:52;;;;;;;9.88;3.33;;;11.40;99.90;;;;;;5092058;28;20032;-61
2022/05/29 06:46:19;;;;;;;11.15;3.50;;;11.40;99.90;;;;;;5087893;28;20576;-61
2022/05/29 06:48:45;;;;;;;12.82;3.33;;;11.40;99.90;;;;;;5034754;28;20051;-61
2022/05/29 06:51:13;;;;;;;13.35;3.17;;;11.40;99.90;;;;;;5093885;28;20050;-62
2022/05/29 06:53:40;;;;;;;9.05;3.67;;;11.40;99.90;;;;;;5087004;28;20036;-63
2022/05/29 06:56:06;;;;;;;15.15;3.40;;;11.50;99.90;;;;;;5087606;28;20123;-62
2022/05/29 06:58:32;;;;;;;8.65;3.15;;;11.40;99.90;;;;;;5083093;28;20043;-61
2022/05/29 07:09:18;;;;;;;16.27;3.13;;;11.40;99.90;;;;;;5095127;28;20044;-63
2022/05/29 07:11:46;;;;;;;5.80;2.28;;;11.20;99.90;;;;;;5088075;28;20055;-61
2022/05/29 07:14:12;;;;;;;8.55;2.95;;;11.10;99.90;;;;;;5089732;28;20055;-61
2022/05/29 07:16:38;;;;;;;8.40;2.60;;;10.90;99.90;;;;;;5088491;28;20040;-61
2022/05/29 07:19:04;;;;;;;16.58;2.65;;;10.80;99.90;;;;;;5087424;28;20085;-62
2022/05/29 07:21:33;;;;;;;8.60;2.97;;;10.70;99.90;;;;;;5087833;28;20051;-62
2022/05/29 07:23:59;;;;;;;11.00;2.63;;;10.60;99.90;;;;;;5072972;28;20096;-61
2022/05/29 07:26:25;;;;;;;6.50;2.80;;;10.60;99.90;;;;;;5087312;28;20040;-60
2022/05/29 07:28:52;;;;;;;6.93;2.45;;;10.70;99.90;;;;;;5069986;28;20147;-61
2022/05/29 07:31:18;;;;;;;9.93;2.90;;;10.80;99.90;;;;;;5071871;28;20044;-61
2022/05/29 07:33:43;;;;;;;11.23;2.65;;;10.70;99.90;;;;;;5091001;28;20092;-61
2022/05/29 07:36:10;;;;;;;8.98;2.20;;;10.70;99.90;;;;;;5056717;28;20078;-61
2022/05/29 07:38:37;;;;;;;12.45;2.85;;;10.70;99.90;;;;;;5074332;28;20048;-61
2022/05/29 07:43:18;;;;;;;12.27;2.75;;;10.70;99.90;;;;;;5097403;28;20048;-61
2022/05/29 07:43:50;;;;;;;9.38;2.85;;;10.70;99.90;;;;;;5102109;28;20040;-63
2022/05/29 07:46:16;;;;;;;11.15;2.47;;;10.70;99.90;;;;;;5096905;28;20651;-61
2022/05/29 07:48:42;;;;;;;12.05;2.67;;;10.80;99.90;;;;;;5099421;28;20131;-61
2022/05/29 07:51:07;;;;;;;12.95;3.00;;;10.90;99.90;;;;;;5089550;28;20055;-62
2022/05/29 07:53:34;;;;;;;12.27;3.28;;;11.00;99.90;;;;;;5095815;28;20040;-63
2022/05/29 07:56:02;;;;;;;11.15;2.90;;;11.00;99.90;;;;;;5086857;28;20031;-62
2022/05/29 07:58:27;;;;;;;11.85;2.90;;;11.10;99.90;;;;;;5090336;28;20036;-61
2022/05/29 08:00:53;;;;;;;13.50;3.30;;;11.20;99.90;;;;;;5089753;28;20054;-62
2022/05/29 08:03:19;;;;;;;13.82;2.83;;;11.30;99.90;;;;;;5091787;28;20131;-61
2022/05/29 08:05:45;;;;;;;12.52;3.42;;;11.40;99.90;;;;;;5098624;28;20089;-61
2022/05/29 08:08:13;;;;;;;12.98;2.80;;;11.50;99.90;;;;;;5072400;28;20044;-61
2022/05/29 08:10:40;;;;;;;11.63;3.42;;;11.60;99.90;;;;;;5056245;28;20040;-62
2022/05/29 08:13:06;;;;;;;9.43;3.33;;;11.70;99.90;;;;;;5095778;28;20079;-63
2022/05/29 08:15:32;;;;;;;14.57;2.65;;;11.90;99.90;;;;;;5098026;28;20040;-61
2022/05/29 08:17:58;;;;;;;10.55;3.08;;;11.90;99.90;;;;;;5072639;28;20050;-61
2022/05/29 08:20:26;;;;;;;8.10;2.28;;;12.00;99.90;;;;;;5092477;28;20075;-61
2022/05/29 08:22:51;;;;;;;13.07;2.58;;;12.10;99.90;;;;;;5095182;28;20040;-61
2022/05/29 08:30:51;;;;;;;11.23;3.10;;;12.30;99.90;;;;;;5096820;28;20048;-61
2022/05/29 08:33:18;;;;;;;;;;;12.40;99.90;;;;;;5090614;28;20119;-61
2022/05/29 08:35:46;;;;;;;13.38;2.20;;;12.50;99.90;;;;;;5086365;28;20410;-61
2022/05/29 08:38:13;;;;;;;10.85;2.63;;;12.50;99.90;;;;;;5085981;28;20101;-61
2022/05/29 08:40:46;;;;;;;6.90;1.85;;;12.50;99.90;;;;;;5087811;28;20081;-62
2022/05/29 08:43:22;;;;;;;8.07;2.00;;;12.30;99.90;;;;;;5088407;28;20557;-62
2022/05/29 08:45:50;;;;;;;5.80;1.92;;;12.00;99.90;;;;;;5086499;28;20101;-61
2022/05/29 08:48:19;;;;;;;4.65;1.50;;;11.90;99.90;;;;;;5087901;28;20159;-63
2022/05/29 08:51:20;;;;;;;7.90;2.05;;;11.90;99.90;;;;;;5089079;28;20846;-62
2022/05/29 08:54:03;;;;;;;8.85;2.00;;;12.00;99.90;;;;;;5072669;28;20044;-62
2022/05/29 08:57:13;;;;;;;9.00;2.22;;;12.00;99.90;;;;;;5097840;28;20071;-61
2022/05/29 08:59:49;;;;;;;5.72;1.42;;;11.90;99.90;;;;;;5090251;28;20140;-62
2022/05/29 09:02:52;;;;;;;8.15;1.63;;;11.80;99.90;;;;;;5097919;28;20529;-62
2022/05/29 09:05:20;;;;;;;6.93;1.83;;;11.80;99.90;;;;;;5096385;28;20419;-62
2022/05/29 09:07:49;;;;;;;7.25;2.00;;;11.70;99.90;;;;;;5089435;28;20127;-62
2022/05/29 09:10:20;;;;;;;5.38;2.50;;;11.60;99.90;;;;;;5087219;28;20055;-62
2022/05/29 09:12:52;;;;;;;5.53;1.70;;;11.70;99.90;;;;;;5089328;28;20028;-62
2022/05/29 09:15:26;;;;;;;11.63;2.35;;;11.80;99.90;;;;;;5089312;28;20070;-62
2022/05/29 09:17:58;;;;;;;7.80;1.90;;;11.90;99.90;;;;;;5090040;28;20051;-62
2022/05/29 09:20:53;;;;;;;8.20;2.20;;;12.10;99.90;;;;;;5087531;28;20063;-63
2022/05/29 09:23:27;;;;;;;9.52;1.70;;;12.20;99.90;;;;;;5087139;28;20415;-62
2022/05/29 09:25:55;;;;;;;5.82;1.60;;;12.40;99.90;;;;;;5091186;28;20059;-62
2022/05/29 09:28:29;;;;;;;5.15;1.70;;;12.60;99.90;;;;;;5077866;28;20047;-64
2022/05/29 09:31:11;;;;;;;6.28;1.83;;;12.60;99.90;;;;;;5101666;28;20047;-63
2022/05/29 09:33:38;;;;;;;8.13;2.53;;;12.60;99.90;;;;;;5110016;28;20071;-63
2022/05/29 09:36:27;;;;;;;6.10;1.45;;;12.60;99.90;;;;;;5095286;28;20526;-63
2022/05/29 09:39:08;;;;;;;5.15;1.38;;;12.50;99.90;;;;;;5088695;28;20048;-64
2022/05/29 09:41:41;;;;;;;5.00;1.70;;;12.50;99.90;;;;;;5089508;28;20105;-62
2022/05/29 09:44:15;;;;;;;6.82;1.27;;;12.40;99.90;;;;;;5086149;28;20044;-64
2022/05/29 09:46:43;;;;;;;4.32;1.20;;;12.10;99.90;;;;;;5095171;28;20063;-63
2022/05/29 09:49:45;;;;;;;6.05;1.50;;;12.10;99.90;;;;;;5093141;28;20093;-63
2022/05/29 09:52:35;;;;;;;6.30;1.80;;;12.20;99.90;;;;;;5079679;28;20046;-63
2022/05/29 09:55:30;;;;;;;6.55;1.95;;;12.30;99.90;;;;;;5087218;28;20044;-64
2022/05/29 09:58:01;;;;;;;4.53;1.30;;;12.50;99.90;;;;;;5086388;28;20115;-63
2022/05/29 10:00:36;;;;;;;6.95;1.95;;;12.70;99.90;;;;;;5051336;28;20044;-64
2022/05/29 10:03:05;;;;;;;4.90;1.50;;;13.00;99.90;;;;;;5088109;28;20044;-63
2022/05/29 10:05:37;;;;;;;4.45;1.48;;;13.10;99.90;;;;;;5088344;28;20901;-63
2022/05/29 10:08:31;;;;;;;4.80;1.80;;;13.20;99.90;;;;;;5069780;28;20040;-63
2022/05/29 10:11:20;;;;;;;4.53;1.15;;;13.40;99.90;;;;;;5091024;28;20079;-64
2022/05/29 10:13:46;;;;;;;6.93;1.70;;;13.50;99.90;;;;;;5070030;28;20038;-65
2022/05/29 10:16:28;;;;;;;5.35;1.70;;;13.60;99.90;;;;;;5089024;28;20040;-61
2022/05/29 10:18:53;;;;;;;3.72;1.50;;;13.60;99.90;;;;;;5052794;28;20431;-62
2022/05/29 10:21:27;;;;;;;4.93;1.33;;;13.60;99.90;;;;;;5088256;28;20042;-61
2022/05/29 10:24:41;;;;;;;5.00;1.77;;;13.50;99.90;;;;;;5088687;28;20093;-62
2022/05/29 10:27:27;;;;;;;5.00;1.40;;;13.40;99.90;;;;;;5094223;28;20040;-62
2022/05/29 10:30:06;;;;;;;5.47;1.35;;;13.30;99.90;;;;;;5083499;28;20138;-62
2022/05/29 10:32:35;;;;;;;3.67;1.10;;;13.20;99.90;;;;;;5087813;28;20036;-62
2022/05/29 10:35:18;;;;;;;3.97;1.40;;;13.10;99.90;;;;;;5093658;28;20111;-62
2022/05/29 10:37:45;;;;;;;8.48;1.60;;;13.00;99.90;;;;;;5076852;28;20031;-63
2022/05/29 10:40:20;;;;;;;7.35;2.00;;;13.00;99.90;;;;;;5107773;28;20134;-62
2022/05/29 10:42:49;;;;;;;4.43;1.75;;;13.00;99.90;;;;;;5105263;28;20058;-63
2022/05/29 10:45:46;;;;;;;5.88;1.55;;;13.00;99.90;;;;;;5088252;28;20620;-63
2022/05/29 10:48:34;;;;;;;5.00;1.48;;;13.00;99.90;;;;;;5085648;28;20101;-62
2022/05/29 10:51:18;;;;;;;7.55;1.90;;;12.80;99.90;;;;;;5085119;28;20043;-62
2022/05/29 10:54:05;;;;;;;5.13;1.50;;;12.70;99.90;;;;;;5074389;28;20036;-63
2022/05/29 10:56:49;;;;;;;5.95;1.92;;;12.60;99.90;;;;;;5089208;28;20048;-61
2022/05/29 10:59:40;;;;;;;2.90;1.55;;;12.80;99.90;;;;;;5088491;28;20119;-62
2022/05/29 11:05:39;;;;;;;5.57;1.80;;;13.00;99.90;;;;;;5094094;28;20785;-63
2022/05/29 11:08:32;;;;;;;7.15;2.17;;;13.00;99.90;;;;;;5106106;28;20043;-63
2022/05/29 11:11:33;;;;;;;4.20;1.70;;;12.80;99.90;;;;;;5105194;28;20122;-63
2022/05/29 11:14:02;;;;;;;;;;;12.40;99.90;;;;;;5103445;28;20126;-62
2022/05/29 11:16:58;;;;;;;5.45;1.70;;;12.20;99.90;;;;;;5096036;28;20339;-63
2022/05/29 11:19:57;;;;;;;4.93;1.65;;;12.10;99.90;;;;;;5090777;28;20454;-62
2022/05/29 11:22:53;;;;;;;5.38;1.65;;;12.30;99.90;;;;;;5091935;28;20442;-62
2022/05/29 11:25:31;;;;;;;6.80;2.03;;;12.50;99.90;;;;;;5100247;28;20043;-62
2022/05/29 11:28:31;;;;;;;6.95;1.70;;;12.80;99.90;;;;;;5095787;28;20039;-62
2022/05/29 11:31:16;;;;;;;4.97;1.50;;;13.00;99.90;;;;;;5077245;28;20051;-62
2022/05/29 11:33:52;;;;;;;4.95;1.70;;;13.40;99.90;;;;;;5076273;28;20515;-62
2022/05/29 11:36:39;;;;;;;7.93;1.80;;;13.60;99.90;;;;;;5076750;28;20040;-63
2022/05/29 11:39:33;;;;;;;4.43;1.50;;;13.80;99.90;;;;;;5075284;28;20049;-62
2022/05/29 11:42:16;;;;;;;4.10;1.50;;;14.00;99.90;;;;;;5096081;28;20036;-62
2022/05/29 11:45:02;;;;;;;4.03;1.60;;;14.20;99.90;;;;;;5094346;28;20044;-63
2022/05/29 11:53:56;;;;;;;1.10;0.90;;;13.30;99.90;;;;;;5063603;28;20056;-62
2022/05/29 11:57:02;;;;;;;6.03;1.70;;;13.10;99.90;;;;;;5065843;28;20027;-63
2022/05/29 12:00:00;;;;;;;6.25;1.90;;;13.00;99.90;;;;;;5034025;28;20049;-62
2022/05/29 12:02:45;;;;;;;8.20;1.75;;;13.10;99.90;;;;;;5046032;28;20048;-62
2022/05/29 12:05:28;;;;;;;8.57;2.13;;;13.00;99.90;;;;;;5050844;28;20039;-63
2022/05/29 12:08:04;;;;;;;6.10;1.95;;;13.00;99.90;;;;;;5028681;28;20467;-62
2022/05/29 12:14:30;;;;;;;4.47;1.80;;;13.40;99.90;;;;;;5252405;22;20055;-62
2022/05/29 12:17:11;;;;;;;3.80;1.63;;;13.70;99.90;;;;;;5086562;28;20271;-62
2022/05/29 12:19:51;;;;;;;3.30;1.65;;;14.00;99.90;;;;;;5272137;22;20097;-62
2022/05/29 12:24:56;;;;;;;3.65;1.60;;;14.20;99.90;;;;;;5407815;22;20044;-62
2022/05/29 12:27:24;;;;;;;3.45;1.33;;;14.20;99.90;;;;;;5073205;28;20036;-62
2022/05/29 12:30:06;;;;;;;4.60;1.67;;;14.10;99.90;;;;;;5053600;28;20089;-62
2022/05/29 12:32:35;;;;;;;4.85;1.55;;;13.70;99.90;;;;;;5073166;28;20037;-63
2022/05/29 12:47:04;;;;;;;3.42;1.65;;;12.50;99.90;;;;;;5840835;22;20052;-62
2022/05/29 12:49:42;;;;;;;4.80;2.00;;;12.40;99.90;;;;;;5083757;28;20067;-63
2022/05/29 12:52:18;;;;;;;8.35;1.90;;;12.40;99.90;;;;;;5092731;28;20476;-62
2022/05/29 12:54:53;;;;;;;5.03;1.50;;;12.50;99.90;;;;;;5087063;28;20044;-61
2022/05/29 12:58:00;;;;;;;4.68;1.73;;;12.70;99.90;;;;;;5061865;28;20032;-62
2022/05/29 13:00:47;;;;;;;4.88;1.95;;;12.80;99.90;;;;;;5109867;22;20044;-63
2022/05/29 13:03:35;;;;;;;4.80;1.60;;;13.00;99.90;;;;;;5092155;27;20463;-63
2022/05/29 13:06:33;;;;;;;6.88;1.73;;;13.30;99.90;;;;;;5098785;28;20123;-63
2022/05/29 13:09:21;;;;;;;5.85;1.60;;;13.40;99.90;;;;;;5092832;28;20043;-63
2022/05/29 13:12:06;;;;;;;10.02;1.77;;;13.70;99.90;;;;;;5073304;28;20040;-63
2022/05/29 13:14:33;;;;;;;4.50;1.60;;;13.90;99.90;;;;;;5080466;28;20059;-63
2022/05/29 13:17:08;;;;;;;5.85;1.65;;;14.10;99.90;;;;;;5092413;28;20523;-63
2022/05/29 13:19:58;;;;;;;6.18;1.50;;;14.20;99.90;;;;;;5092817;28;20036;-63
2022/05/29 13:22:50;;;;;;;8.60;1.70;;;14.30;99.90;;;;;;5085471;28;20078;-63
2022/05/29 13:25:19;;;;;;;5.97;1.50;;;14.00;99.90;;;;;;5088525;28;20092;-63
2022/05/29 13:27:45;;;;;;;5.30;1.83;;;13.90;99.90;;;;;;5092416;28;20491;-63
2022/05/29 13:30:35;;;;;;;7.03;1.70;;;13.70;99.90;;;;;;5082741;28;20037;-63
2022/05/29 13:33:29;;;;;;;10.10;2.28;;;13.50;99.90;;;;;;5086851;28;20115;-63
2022/05/29 13:35:58;;;;;;;6.57;1.80;;;13.40;99.90;;;;;;5086357;28;20698;-63
2022/05/29 13:38:46;;;;;;;5.47;1.70;;;13.20;99.90;;;;;;5073182;28;20032;-63
2022/05/29 13:41:27;;;;;;;9.35;2.60;;;13.00;99.90;;;;;;5062517;28;20412;-63
2022/05/29 13:43:53;;;;;;;8.38;2.13;;;12.80;99.90;;;;;;5089114;28;20136;-63
2022/05/29 13:46:27;;;;;;;9.77;2.55;;;12.70;99.90;;;;;;5090362;28;20051;-63
2022/05/29 13:49:20;;;;;;;8.75;2.45;;;12.70;99.90;;;;;;5086196;28;20040;-63
2022/05/29 13:51:46;;;;;;;9.60;2.00;;;12.70;99.90;;;;;;5064247;28;20240;-63
2022/05/29 13:54:26;;;;;;;9.80;2.33;;;12.80;99.90;;;;;;5080038;28;20037;-63
2022/05/29 13:57:10;;;;;;;13.88;3.30;;;12.90;99.90;;;;;;5078417;28;20037;-64
2022/05/29 14:05:34;;;;;;;6.60;1.90;;;13.30;99.90;;;;;;5088815;28;20063;-63
2022/05/29 14:08:18;;;;;;;6.80;2.00;;;13.50;99.90;;;;;;5089150;28;20115;-63
2022/05/29 14:11:15;;;;;;;8.23;2.00;;;13.60;99.90;;;;;;5083887;28;20036;-63
2022/05/29 14:13:45;;;;;;;5.55;1.67;;;13.60;99.90;;;;;;5068020;28;20052;-63
2022/05/29 14:16:29;;;;;;;11.77;2.67;;;13.50;99.90;;;;;;5089104;28;20036;-63
2022/05/29 14:19:24;;;;;;;8.25;1.75;;;13.40;99.90;;;;;;5088511;28;20040;-63
2022/05/29 14:22:00;;;;;;;7.28;2.35;;;13.50;99.90;;;;;;5051061;28;20070;-63
2022/05/29 14:24:56;;;;;;;10.68;2.20;;;13.50;99.90;;;;;;5086515;28;20508;-63
2022/05/29 14:28:05;;;;;;;7.35;2.50;;;13.50;99.90;;;;;;5069790;28;20059;-63